Time;durP1;ratioP1;P1;durP2;ratioP2;P2;SDS_P1;SDS_P2;PMS_P1;PMS_P2;Temp;Humidity;BMP_temperature;BMP_pressure;BME280_temperature;BME280_humidity;BME280_pressure;Samples;Min_cycle;Max_cycle;Signal;HPM_P1;HPM_P2
2022/07/15 00:01:16;;;;;;;2.37;2.17;;;20.80;99.90;;;;;;5049147;28;20437;-45
2022/07/15 00:03:44;;;;;;;2.40;1.70;;;20.80;99.90;;;;;;5049101;28;20421;-46
2022/07/15 00:06:11;;;;;;;4.07;2.40;;;20.70;99.90;;;;;;5049048;28;20481;-45
2022/07/15 00:08:39;;;;;;;2.83;1.87;;;20.60;99.90;;;;;;5049179;28;20445;-51
2022/07/15 00:11:06;;;;;;;6.43;2.07;;;20.60;99.90;;;;;;5049228;28;20450;-46
2022/07/15 00:13:33;;;;;;;3.00;2.53;;;20.60;99.80;;;;;;5048979;28;20950;-45
2022/07/15 00:16:00;;;;;;;4.60;2.27;;;20.60;99.90;;;;;;5048769;28;20466;-46
2022/07/15 00:18:27;;;;;;;3.90;2.23;;;20.70;99.90;;;;;;5048901;28;20435;-45
2022/07/15 00:20:54;;;;;;;2.50;1.90;;;20.60;99.90;;;;;;5048964;28;20992;-48
2022/07/15 00:23:21;;;;;;;3.23;2.00;;;20.40;99.90;;;;;;5048929;28;20828;-45
2022/07/15 00:25:49;;;;;;;3.70;2.10;;;20.30;99.90;;;;;;5048943;28;20473;-47
2022/07/15 00:28:16;;;;;;;3.10;2.37;;;20.10;99.90;;;;;;5048790;28;20878;-49
2022/07/15 00:30:44;;;;;;;2.23;2.03;;;20.10;99.90;;;;;;5048722;28;20491;-45
2022/07/15 00:33:11;;;;;;;3.10;2.30;;;20.20;99.90;;;;;;5048743;28;20473;-49
2022/07/15 00:35:39;;;;;;;2.73;1.93;;;20.20;99.90;;;;;;5048800;28;20454;-47
2022/07/15 00:38:09;;;;;;;2.77;2.40;;;20.20;99.90;;;;;;5048980;28;20449;-45
2022/07/15 00:40:40;;;;;;;4.57;2.27;;;20.10;99.90;;;;;;5048659;28;20445;-45
2022/07/15 00:43:09;;;;;;;2.23;1.97;;;20.20;99.90;;;;;;5049261;28;20519;-47
2022/07/15 00:45:36;;;;;;;3.13;2.30;;;20.20;99.90;;;;;;5048870;28;20449;-45
2022/07/15 00:48:04;;;;;;;2.87;2.37;;;20.20;99.90;;;;;;5048858;28;20477;-46
2022/07/15 00:50:32;;;;;;;2.93;2.57;;;20.10;99.90;;;;;;5049472;28;21022;-45
2022/07/15 00:53:03;;;;;;;2.30;2.10;;;20.20;99.90;;;;;;5052189;28;20469;-45
2022/07/15 00:55:32;;;;;;;4.03;2.43;;;20.20;99.90;;;;;;5052334;28;20453;-47
2022/07/15 00:58:04;;;;;;;3.53;2.07;;;20.20;99.90;;;;;;5052390;28;20531;-47
2022/07/15 01:00:33;;;;;;;3.03;2.57;;;20.20;99.90;;;;;;5052535;28;20548;-45
2022/07/15 01:03:01;;;;;;;5.80;2.20;;;20.20;99.90;;;;;;5052266;28;20514;-45
2022/07/15 01:05:30;;;;;;;4.30;2.50;;;20.10;99.90;;;;;;5052161;28;21024;-49
2022/07/15 01:07:57;;;;;;;2.63;2.43;;;19.70;99.90;;;;;;5052199;28;20444;-47
2022/07/15 01:10:25;;;;;;;4.93;2.80;;;19.80;99.90;;;;;;5051878;28;20445;-45
2022/07/15 01:12:52;;;;;;;3.60;2.40;;;19.90;99.90;;;;;;5052184;28;20469;-46
2022/07/15 01:15:20;;;;;;;4.47;2.63;;;20.00;99.90;;;;;;5051653;28;20524;-50
2022/07/15 01:17:48;;;;;;;3.60;2.27;;;20.00;99.90;;;;;;5051970;28;20449;-47
2022/07/15 01:20:17;;;;;;;3.03;2.17;;;19.90;99.90;;;;;;5051631;28;20429;-48
2022/07/15 01:22:47;;;;;;;5.60;2.47;;;19.90;99.90;;;;;;5051619;28;20961;-46
2022/07/15 01:25:14;;;;;;;2.73;2.20;;;19.90;99.90;;;;;;5052036;28;20476;-47
2022/07/15 01:27:42;;;;;;;3.60;3.10;;;19.90;99.90;;;;;;5051781;28;20552;-46
2022/07/15 01:30:11;;;;;;;4.13;3.00;;;19.90;99.90;;;;;;5052046;28;20885;-47
2022/07/15 01:32:38;;;;;;;3.43;2.90;;;19.90;99.90;;;;;;5051442;28;20492;-45
2022/07/15 01:35:07;;;;;;;3.80;2.87;;;19.90;99.90;;;;;;5051662;28;20449;-46
2022/07/15 01:37:34;;;;;;;3.87;3.17;;;19.80;99.90;;;;;;5051439;28;20457;-45
2022/07/15 01:40:03;;;;;;;8.60;3.20;;;19.80;99.90;;;;;;5051554;28;20812;-45
2022/07/15 01:42:30;;;;;;;2.90;2.30;;;19.70;99.90;;;;;;5051570;28;20449;-45
2022/07/15 01:44:57;;;;;;;2.90;2.70;;;19.70;99.90;;;;;;5051331;28;20451;-47
2022/07/15 01:47:25;;;;;;;3.10;2.43;;;19.70;99.90;;;;;;5051484;28;20473;-45
2022/07/15 01:49:52;;;;;;;3.63;2.57;;;19.70;99.90;;;;;;5051061;28;20440;-46
2022/07/15 01:52:19;;;;;;;6.23;3.47;;;19.70;99.90;;;;;;5051099;28;20519;-45
2022/07/15 01:54:46;;;;;;;4.60;3.27;;;19.60;99.90;;;;;;5051075;28;20476;-45
2022/07/15 01:57:14;;;;;;;3.80;3.33;;;19.40;99.90;;;;;;5051089;28;20538;-45
2022/07/15 01:59:41;;;;;;;3.13;2.80;;;19.30;99.90;;;;;;5050972;28;20863;-45
2022/07/15 02:02:08;;;;;;;3.17;2.57;;;19.40;99.90;;;;;;5050427;28;20503;-46
2022/07/15 02:04:36;;;;;;;5.10;3.03;;;19.40;99.90;;;;;;5051220;28;20446;-47
2022/07/15 02:07:04;;;;;;;3.43;2.87;;;19.40;99.90;;;;;;5050953;28;20456;-45
2022/07/15 02:09:31;;;;;;;7.10;3.00;;;19.50;99.90;;;;;;5050656;28;20434;-45
2022/07/15 02:11:58;;;;;;;3.30;2.37;;;19.50;99.90;;;;;;5051043;28;20507;-46
2022/07/15 02:14:26;;;;;;;3.90;3.17;;;19.60;99.90;;;;;;5050454;28;20477;-47
2022/07/15 02:16:53;;;;;;;3.30;2.80;;;19.60;99.90;;;;;;5050819;28;20469;-45
2022/07/15 02:19:20;;;;;;;2.90;2.60;;;19.60;99.90;;;;;;5050671;28;20441;-45
2022/07/15 02:21:47;;;;;;;3.03;2.70;;;19.60;99.90;;;;;;5050687;28;20438;-50
2022/07/15 02:24:15;;;;;;;3.47;3.17;;;19.50;99.90;;;;;;5050584;28;20499;-46
2022/07/15 02:26:42;;;;;;;3.63;3.03;;;19.50;99.90;;;;;;5050708;28;20496;-48
2022/07/15 02:29:09;;;;;;;4.10;3.13;;;19.50;99.90;;;;;;5050517;28;21007;-46
2022/07/15 02:31:37;;;;;;;5.13;3.97;;;19.50;99.90;;;;;;5050686;28;21058;-45
2022/07/15 02:34:04;;;;;;;3.90;3.50;;;19.50;99.90;;;;;;5050410;28;20469;-48
2022/07/15 02:36:31;;;;;;;8.63;4.60;;;19.40;99.90;;;;;;5050213;28;20960;-46
2022/07/15 02:38:58;;;;;;;3.93;2.70;;;19.50;99.90;;;;;;5050280;28;20453;-48
2022/07/15 02:41:25;;;;;;;5.47;3.77;;;19.60;99.90;;;;;;5050276;28;20434;-46
2022/07/15 02:43:52;;;;;;;4.10;2.73;;;19.60;99.90;;;;;;5050467;28;20997;-45
2022/07/15 02:46:20;;;;;;;4.23;3.10;;;19.60;99.90;;;;;;5050387;28;20469;-45
2022/07/15 02:48:48;;;;;;;4.67;3.23;;;19.50;99.90;;;;;;5050001;28;20853;-48
2022/07/15 02:51:16;;;;;;;4.63;3.57;;;19.40;99.90;;;;;;5050246;28;20445;-46
2022/07/15 02:53:43;;;;;;;2.90;2.63;;;19.30;99.90;;;;;;5050286;28;20985;-45
2022/07/15 02:56:10;;;;;;;4.30;3.10;;;19.30;99.90;;;;;;5050053;28;20473;-48
2022/07/15 02:58:38;;;;;;;3.00;2.57;;;19.30;99.90;;;;;;5049982;28;20786;-47
2022/07/15 03:01:05;;;;;;;4.50;3.10;;;19.30;99.90;;;;;;5049812;28;20849;-46
2022/07/15 03:03:32;;;;;;;4.33;2.90;;;19.30;99.90;;;;;;5049821;28;20499;-47
2022/07/15 03:06:01;;;;;;;5.17;3.20;;;19.30;99.90;;;;;;5049982;28;20469;-45
2022/07/15 03:08:28;;;;;;;4.20;3.00;;;19.30;99.90;;;;;;5049868;28;20962;-45
2022/07/15 03:10:55;;;;;;;3.50;3.20;;;19.30;99.90;;;;;;5050098;28;20445;-46
2022/07/15 03:13:23;;;;;;;3.37;3.07;;;19.30;99.90;;;;;;5049753;28;20473;-48
2022/07/15 03:15:50;;;;;;;7.70;4.17;;;19.10;99.90;;;;;;5049628;28;20626;-46
2022/07/15 03:18:17;;;;;;;5.47;3.67;;;19.10;99.90;;;;;;5049870;28;20441;-45
2022/07/15 03:20:45;;;;;;;6.57;4.13;;;19.00;99.90;;;;;;5049600;28;20453;-46
2022/07/15 03:23:14;;;;;;;3.93;3.20;;;19.00;99.90;;;;;;5049596;28;20434;-46
2022/07/15 03:25:41;;;;;;;3.97;3.47;;;19.00;99.90;;;;;;5049628;28;20990;-45
2022/07/15 03:28:08;;;;;;;5.63;3.90;;;19.00;99.90;;;;;;5049673;28;20449;-46
2022/07/15 03:30:35;;;;;;;6.37;3.23;;;19.00;99.90;;;;;;5049442;28;20453;-45
2022/07/15 03:33:02;;;;;;;5.57;3.30;;;19.00;99.90;;;;;;5049800;28;20453;-46
2022/07/15 03:35:29;;;;;;;3.70;3.23;;;19.00;99.90;;;;;;5049548;28;20956;-46
2022/07/15 03:37:56;;;;;;;6.13;4.10;;;19.10;99.90;;;;;;5049634;28;20505;-47
2022/07/15 03:40:25;;;;;;;5.00;3.80;;;19.10;99.90;;;;;;5049287;28;20449;-47
2022/07/15 03:42:52;;;;;;;4.40;4.00;;;19.20;99.90;;;;;;5049520;28;20452;-45
2022/07/15 03:45:19;;;;;;;3.97;3.67;;;19.20;99.90;;;;;;5049473;28;20442;-45
2022/07/15 03:47:46;;;;;;;6.40;4.20;;;19.30;99.90;;;;;;5049500;28;20498;-45
2022/07/15 03:50:13;;;;;;;4.00;3.60;;;19.30;99.90;;;;;;5049282;28;20880;-47
2022/07/15 03:52:40;;;;;;;5.10;4.53;;;19.30;99.90;;;;;;5049324;28;20453;-47
2022/07/15 03:55:10;;;;;;;5.60;3.90;;;19.40;99.90;;;;;;5049075;28;20554;-45
2022/07/15 03:57:38;;;;;;;4.87;4.47;;;19.50;99.90;;;;;;5106612;22;20495;-46
2022/07/15 04:00:07;;;;;;;4.30;3.93;;;19.50;99.90;;;;;;5048139;28;20884;-47
2022/07/15 04:02:34;;;;;;;5.03;4.63;;;19.50;99.90;;;;;;5049305;28;20438;-46
2022/07/15 04:05:01;;;;;;;5.27;4.77;;;19.40;99.90;;;;;;5049147;28;20503;-44
2022/07/15 04:07:28;;;;;;;5.03;4.07;;;19.40;99.90;;;;;;5048846;28;20445;-46
2022/07/15 04:09:55;;;;;;;4.37;4.00;;;19.40;99.90;;;;;;5048906;28;20445;-44
2022/07/15 04:12:22;;;;;;;5.17;4.77;;;19.40;99.90;;;;;;5049060;28;20437;-47
2022/07/15 04:14:50;;;;;;;6.30;5.20;;;19.40;99.90;;;;;;5048529;28;20542;-44
2022/07/15 04:17:17;;;;;;;5.13;4.63;;;19.40;99.90;;;;;;5048941;28;20485;-44
2022/07/15 04:19:44;;;;;;;6.63;4.97;;;19.30;99.90;;;;;;5048699;28;20835;-46
2022/07/15 04:22:11;;;;;;;11.03;5.07;;;19.30;99.90;;;;;;5048775;28;20946;-45
2022/07/15 04:24:39;;;;;;;5.83;5.30;;;19.30;99.90;;;;;;5049000;28;20441;-44
2022/07/15 04:27:07;;;;;;;5.13;4.63;;;19.30;99.90;;;;;;5052341;28;21013;-44
2022/07/15 04:29:35;;;;;;;5.57;5.07;;;19.40;99.90;;;;;;5052389;28;20441;-45
2022/07/15 04:32:04;;;;;;;6.50;4.80;;;19.40;99.90;;;;;;5052602;28;20845;-45
2022/07/15 04:34:31;;;;;;;5.53;4.90;;;19.50;99.90;;;;;;5052528;28;20562;-46
2022/07/15 04:36:58;;;;;;;4.63;4.23;;;19.40;99.90;;;;;;5052697;28;20526;-44
2022/07/15 04:39:25;;;;;;;6.30;5.10;;;19.40;99.90;;;;;;5052247;28;20437;-46
2022/07/15 04:41:52;;;;;;;5.70;5.20;;;19.30;99.90;;;;;;5052577;28;20942;-45
2022/07/15 04:44:19;;;;;;;5.27;4.77;;;19.30;99.90;;;;;;5052471;28;20922;-46
2022/07/15 04:46:46;;;;;;;7.30;5.30;;;19.30;99.90;;;;;;5052379;28;21031;-47
2022/07/15 04:51:59;;;;;;;4.80;4.40;;;19.30;99.90;;;;;;5052151;28;20487;-44
2022/07/15 04:54:26;;;;;;;5.03;4.63;;;19.40;99.90;;;;;;5052294;28;20560;-45
2022/07/15 04:56:53;;;;;;;6.43;5.00;;;19.40;99.90;;;;;;5052336;28;20468;-47
2022/07/15 04:59:20;;;;;;;5.20;4.70;;;19.40;99.90;;;;;;5051981;28;20448;-45
2022/07/15 05:01:47;;;;;;;5.53;4.70;;;19.40;99.90;;;;;;5052101;28;20910;-44
2022/07/15 05:04:15;;;;;;;6.80;4.27;;;19.40;99.90;;;;;;5052352;28;20499;-45
2022/07/15 05:06:42;;;;;;;5.30;4.80;;;19.40;99.90;;;;;;5052043;28;20477;-47
2022/07/15 05:09:10;;;;;;;5.87;5.03;;;19.30;99.90;;;;;;5051818;28;20441;-44
2022/07/15 05:11:37;;;;;;;9.37;5.50;;;19.40;99.90;;;;;;5051780;28;20919;-44
2022/07/15 05:14:04;;;;;;;5.20;4.70;;;19.30;99.90;;;;;;5051476;28;20477;-47
2022/07/15 05:16:31;;;;;;;8.67;4.67;;;19.40;99.90;;;;;;5051929;28;20461;-44
2022/07/15 05:18:58;;;;;;;6.50;4.37;;;19.40;99.90;;;;;;5051880;28;20450;-47
2022/07/15 05:21:26;;;;;;;6.60;5.50;;;19.40;99.90;;;;;;5051901;28;20446;-44
2022/07/15 05:23:54;;;;;;;5.17;4.77;;;19.40;99.90;;;;;;5051564;28;20548;-44
2022/07/15 05:26:21;;;;;;;5.20;4.70;;;19.50;99.90;;;;;;5051664;28;20473;-46
2022/07/15 05:28:48;;;;;;;5.40;4.90;;;19.60;99.90;;;;;;5051391;28;20995;-46
2022/07/15 05:31:15;;;;;;;5.40;4.90;;;19.60;99.90;;;;;;5051670;28;20511;-47
2022/07/15 05:33:42;;;;;;;6.80;4.30;;;19.70;99.90;;;;;;5051497;28;20442;-46
2022/07/15 05:36:13;;;;;;;6.20;5.60;;;19.80;99.90;;;;;;5051763;28;20914;-48
2022/07/15 05:38:42;;;;;;;5.70;5.20;;;19.80;99.90;;;;;;5050293;28;20809;-42
2022/07/15 05:41:09;;;;;;;5.43;4.90;;;19.80;99.90;;;;;;5051411;28;20450;-44
2022/07/15 05:43:37;;;;;;;5.70;5.20;;;19.80;99.90;;;;;;5051525;28;20840;-45
2022/07/15 05:46:04;;;;;;;5.47;4.97;;;19.70;99.90;;;;;;5051335;28;20461;-45
2022/07/15 05:48:31;;;;;;;5.43;4.07;;;19.80;99.90;;;;;;5051183;28;20437;-45
2022/07/15 05:50:58;;;;;;;5.83;5.10;;;19.80;99.90;;;;;;5050900;28;20438;-46
2022/07/15 05:53:25;;;;;;;7.50;4.83;;;19.80;99.90;;;;;;5051479;28;20433;-44
2022/07/15 05:55:54;;;;;;;5.63;5.13;;;19.80;99.90;;;;;;5050669;28;21046;-46
2022/07/15 05:58:21;;;;;;;7.80;5.00;;;19.80;99.90;;;;;;5051192;28;20457;-44
2022/07/15 06:00:48;;;;;;;6.70;5.80;;;19.80;99.90;;;;;;5050866;28;20496;-47
2022/07/15 06:03:15;;;;;;;6.77;5.53;;;19.80;99.90;;;;;;5050859;28;20441;-45
2022/07/15 06:05:42;;;;;;;6.47;5.23;;;19.80;99.90;;;;;;5050788;28;20441;-45
2022/07/15 06:08:10;;;;;;;9.20;5.30;;;19.90;99.90;;;;;;5050922;28;20453;-49
2022/07/15 06:10:38;;;;;;;7.17;5.90;;;19.70;99.90;;;;;;5050489;28;20503;-46
2022/07/15 06:13:06;;;;;;;6.10;5.60;;;19.80;99.90;;;;;;5050804;28;20821;-45
2022/07/15 06:15:33;;;;;;;5.60;5.10;;;19.80;99.90;;;;;;5050186;28;20527;-45
2022/07/15 06:18:00;;;;;;;5.60;5.10;;;19.70;99.90;;;;;;5051135;28;20957;-44
2022/07/15 06:20:27;;;;;;;5.43;4.93;;;19.70;99.90;;;;;;5050627;28;20515;-46
2022/07/15 06:22:54;;;;;;;7.50;5.83;;;19.70;99.90;;;;;;5050652;28;20445;-44
2022/07/15 06:25:22;;;;;;;5.67;5.17;;;19.80;99.90;;;;;;5050453;28;20469;-45
2022/07/15 06:27:49;;;;;;;6.30;4.87;;;19.80;99.90;;;;;;5050575;28;20862;-45
2022/07/15 06:30:17;;;;;;;11.33;6.17;;;19.80;99.90;;;;;;5050339;28;20464;-44
2022/07/15 06:32:44;;;;;;;5.30;4.80;;;19.70;99.90;;;;;;5050387;28;20445;-45
2022/07/15 06:35:12;;;;;;;5.47;5.07;;;19.50;99.90;;;;;;5050298;28;20539;-44
2022/07/15 06:37:40;;;;;;;6.40;5.60;;;19.50;99.90;;;;;;5050379;28;20548;-46
2022/07/15 06:40:08;;;;;;;5.60;5.10;;;19.50;99.90;;;;;;5049930;28;20445;-49
2022/07/15 06:42:37;;;;;;;5.90;5.30;;;19.40;99.90;;;;;;5050257;28;20950;-48
2022/07/15 06:45:05;;;;;;;6.60;5.57;;;19.30;99.90;;;;;;5050085;28;20464;-45
2022/07/15 06:47:33;;;;;;;6.50;5.80;;;19.30;99.90;;;;;;5049862;28;20887;-45
2022/07/15 06:50:01;;;;;;;5.93;5.40;;;19.30;99.90;;;;;;5049648;28;20507;-46
2022/07/15 06:52:28;;;;;;;6.23;5.63;;;19.30;99.90;;;;;;5049937;28;20860;-45
2022/07/15 06:54:55;;;;;;;6.63;6.00;;;19.40;99.90;;;;;;5049849;28;20465;-45
2022/07/15 06:57:22;;;;;;;6.13;5.50;;;19.40;99.90;;;;;;5049713;28;20465;-47
2022/07/15 06:59:49;;;;;;;9.27;5.70;;;19.30;99.90;;;;;;5049965;28;20503;-44
2022/07/15 07:02:17;;;;;;;6.07;5.47;;;19.20;99.90;;;;;;5049943;28;20446;-50
2022/07/15 07:04:45;;;;;;;6.47;5.87;;;19.20;99.90;;;;;;5049815;28;20818;-45
2022/07/15 07:07:13;;;;;;;5.90;5.23;;;19.40;99.90;;;;;;5049665;28;20492;-46
2022/07/15 07:09:40;;;;;;;6.80;6.07;;;19.40;99.90;;;;;;5049336;28;20514;-47
2022/07/15 07:12:07;;;;;;;7.00;6.20;;;19.60;99.90;;;;;;5049700;28;20918;-45
2022/07/15 07:14:34;;;;;;;8.37;6.20;;;19.40;99.90;;;;;;5049239;28;20523;-44
2022/07/15 07:17:01;;;;;;;6.43;5.90;;;19.30;99.90;;;;;;5049658;28;20461;-49
2022/07/15 07:19:28;;;;;;;7.47;6.27;;;19.20;99.90;;;;;;5049469;28;20441;-46
2022/07/15 07:21:57;;;;;;;7.40;5.90;;;19.20;99.90;;;;;;5049513;28;20528;-44
2022/07/15 07:24:24;;;;;;;6.73;6.13;;;19.20;99.90;;;;;;5049553;28;20504;-49
2022/07/15 07:26:51;;;;;;;7.63;6.07;;;19.20;99.90;;;;;;5049510;28;20491;-46
2022/07/15 07:29:22;;;;;;;8.03;6.23;;;19.20;99.90;;;;;;5049213;28;20469;-47
2022/07/15 07:31:49;;;;;;;7.03;6.43;;;19.20;99.90;;;;;;5049389;28;20433;-46
2022/07/15 07:34:17;;;;;;;7.90;6.47;;;19.40;99.90;;;;;;5049430;28;20503;-44
2022/07/15 07:36:44;;;;;;;6.40;5.80;;;19.40;99.90;;;;;;5049216;28;20611;-45
2022/07/15 07:39:13;;;;;;;6.80;6.20;;;19.40;99.90;;;;;;5049073;28;20438;-44
2022/07/15 07:41:41;;;;;;;6.63;5.90;;;19.30;99.90;;;;;;5049346;28;20454;-46
2022/07/15 07:44:08;;;;;;;7.70;6.90;;;19.30;99.90;;;;;;5049331;28;20536;-44
2022/07/15 07:46:36;;;;;;;7.00;6.40;;;19.20;99.90;;;;;;5049220;28;20461;-50
2022/07/15 07:49:04;;;;;;;12.70;6.73;;;19.20;99.90;;;;;;5049069;28;20438;-45
2022/07/15 07:51:31;;;;;;;7.37;6.60;;;19.30;99.90;;;;;;5049327;28;20446;-44
2022/07/15 07:53:58;;;;;;;6.40;5.80;;;19.60;99.90;;;;;;5049254;28;20519;-48
2022/07/15 07:56:26;;;;;;;8.40;7.57;;;19.80;99.90;;;;;;5048777;28;20531;-44
2022/07/15 07:58:53;;;;;;;7.60;6.77;;;19.90;99.90;;;;;;5048905;28;20434;-45
2022/07/15 08:01:20;;;;;;;7.57;6.77;;;19.90;99.90;;;;;;5051224;28;20903;-46
2022/07/15 08:03:47;;;;;;;7.73;6.30;;;20.00;99.90;;;;;;5053328;28;20510;-47
2022/07/15 08:06:14;;;;;;;6.47;5.77;;;20.00;99.90;;;;;;5053205;28;20518;-44
2022/07/15 08:08:41;;;;;;;6.70;6.10;;;20.00;99.90;;;;;;5053296;28;20457;-44
2022/07/15 08:11:08;;;;;;;6.43;5.93;;;20.00;99.90;;;;;;5053029;28;20668;-46
2022/07/15 08:13:37;;;;;;;7.03;6.43;;;20.10;99.90;;;;;;5053184;28;20479;-45
2022/07/15 08:16:04;;;;;;;6.57;6.07;;;20.10;99.90;;;;;;5052420;28;20485;-44
2022/07/15 08:18:31;;;;;;;9.83;6.73;;;20.20;99.90;;;;;;5053209;28;20449;-47
2022/07/15 08:20:58;;;;;;;7.37;6.70;;;20.20;99.90;;;;;;5053047;28;20961;-44
2022/07/15 08:23:25;;;;;;;8.10;5.97;;;20.10;99.90;;;;;;5052761;28;20445;-49
2022/07/15 08:25:53;;;;;;;7.10;6.40;;;20.10;99.90;;;;;;5052782;28;20506;-44
2022/07/15 08:28:21;;;;;;;7.30;6.43;;;20.10;99.90;;;;;;5052898;28;20441;-45
2022/07/15 08:30:50;;;;;;;6.43;5.83;;;20.10;99.90;;;;;;5052595;28;20984;-44
2022/07/15 08:33:17;;;;;;;7.20;6.50;;;20.10;99.90;;;;;;5052822;28;20430;-45
2022/07/15 08:35:44;;;;;;;7.70;6.93;;;20.10;99.90;;;;;;5052500;28;20543;-49
2022/07/15 08:38:12;;;;;;;7.33;6.63;;;20.00;99.90;;;;;;5052670;28;20449;-44
2022/07/15 08:40:40;;;;;;;7.70;7.00;;;19.80;99.90;;;;;;5052168;28;20838;-45
2022/07/15 08:43:08;;;;;;;8.67;7.90;;;19.80;99.90;;;;;;5052824;28;20503;-43
2022/07/15 08:45:37;;;;;;;8.17;7.10;;;19.90;99.90;;;;;;5052553;28;20433;-46
2022/07/15 08:48:06;;;;;;;11.07;7.53;;;20.00;99.90;;;;;;5052529;28;20985;-47
2022/07/15 08:50:34;;;;;;;7.43;6.73;;;20.10;99.90;;;;;;5052230;28;20499;-47
2022/07/15 08:53:01;;;;;;;6.83;5.57;;;20.50;99.90;;;;;;5052106;28;20530;-46
2022/07/15 08:55:29;;;;;;;6.80;6.20;;;20.80;99.90;;;;;;5052214;28;20468;-47
2022/07/15 08:57:57;;;;;;;6.67;6.07;;;21.00;99.90;;;;;;5052206;28;20587;-44
2022/07/15 09:00:28;;;;;;;6.10;5.60;;;21.30;99.90;;;;;;5052403;28;20549;-44
2022/07/15 09:02:59;;;;;;;7.10;6.50;;;21.50;99.90;;;;;;5052148;28;20441;-44
2022/07/15 09:05:30;;;;;;;6.93;6.23;;;21.90;99.90;;;;;;5052038;28;20523;-45
2022/07/15 09:08:00;;;;;;;6.77;6.13;;;22.00;99.90;;;;;;5051807;28;20457;-46
2022/07/15 09:10:46;;;;;;;6.23;5.40;;;22.00;99.90;;;;;;5051867;28;20452;-46
2022/07/15 09:13:22;;;;;;;7.20;6.50;;;21.90;99.90;;;;;;5051762;28;20429;-45
2022/07/15 09:15:50;;;;;;;6.83;6.20;;;21.90;99.90;;;;;;5051430;28;21102;-45
2022/07/15 09:18:19;;;;;;;6.80;6.10;;;21.70;99.90;;;;;;5051877;28;20553;-45
2022/07/15 09:20:49;;;;;;;6.23;5.63;;;21.70;99.90;;;;;;5051740;28;20469;-44
2022/07/15 09:23:22;;;;;;;6.20;5.70;;;21.60;99.90;;;;;;5051720;28;20433;-45
2022/07/15 09:25:50;;;;;;;7.10;6.43;;;21.50;99.90;;;;;;5051591;28;20496;-49
2022/07/15 09:28:17;;;;;;;7.67;7.00;;;21.40;99.90;;;;;;5051546;28;20464;-49
2022/07/15 09:33:35;;;;;;;7.33;6.63;;;21.20;99.90;;;;;;5051581;28;20992;-45
2022/07/15 09:36:06;;;;;;;6.97;6.30;;;21.10;99.90;;;;;;5051319;28;20481;-45
2022/07/15 09:38:40;;;;;;;7.20;6.50;;;21.10;99.90;;;;;;5051450;28;20430;-46
2022/07/15 09:41:08;;;;;;;6.80;6.10;;;21.00;99.90;;;;;;5051336;28;20524;-45
2022/07/15 09:43:49;;;;;;;9.33;7.63;;;21.10;99.90;;;;;;5051476;28;20445;-44
2022/07/15 09:46:16;;;;;;;8.83;8.03;;;21.50;99.90;;;;;;5051542;28;20496;-45
2022/07/15 09:48:45;;;;;;;8.27;7.47;;;21.70;99.90;;;;;;5051214;28;20460;-46
2022/07/15 09:51:13;;;;;;;8.20;7.40;;;21.90;99.90;;;;;;5050987;28;20441;-46
2022/07/15 09:53:43;;;;;;;9.67;7.40;;;22.00;99.90;;;;;;5051304;28;20464;-44
2022/07/15 09:58:42;;;;;;;9.10;8.30;;;22.30;99.90;;;;;;5107817;22;20481;-53
2022/07/15 10:01:11;;;;;;;7.63;6.83;;;22.30;99.90;;;;;;5051172;28;20655;-46
2022/07/15 10:03:39;;;;;;;8.43;7.73;;;22.40;99.90;;;;;;5051349;28;20495;-49
2022/07/15 10:06:06;;;;;;;7.70;7.03;;;22.40;99.90;;;;;;5051270;28;20445;-49
2022/07/15 10:08:36;;;;;;;7.57;6.87;;;22.60;99.90;;;;;;5050955;28;21024;-45
2022/07/15 10:11:13;;;;;;;7.93;7.20;;;22.70;99.90;;;;;;5050904;28;20499;-47
2022/07/15 10:14:19;;;;;;;7.33;6.60;;;22.70;99.90;;;;;;5050790;28;20876;-49
2022/07/15 10:17:26;;;;;;;7.80;7.10;;;22.40;99.90;;;;;;5000742;28;20481;-48
2022/07/15 10:20:26;;;;;;;7.70;7.00;;;22.20;99.90;;;;;;5050585;28;20511;-46
2022/07/15 10:22:58;;;;;;;7.60;7.00;;;22.10;99.90;;;;;;5049735;28;20437;-46
2022/07/15 10:25:46;;;;;;;7.53;6.80;;;22.20;99.90;;;;;;5050741;28;20933;-47
2022/07/15 10:28:15;;;;;;;9.70;8.80;;;22.10;99.90;;;;;;5050676;28;20572;-48
2022/07/15 10:30:43;;;;;;;6.97;6.27;;;22.00;99.90;;;;;;5050444;28;21008;-48
2022/07/15 10:33:18;;;;;;;8.90;7.90;;;21.90;99.90;;;;;;5050442;28;20817;-46
2022/07/15 10:35:48;;;;;;;7.67;7.07;;;21.90;99.90;;;;;;5043257;28;20522;-49
2022/07/15 10:38:23;;;;;;;8.77;7.87;;;21.80;99.90;;;;;;5040794;28;20878;-46
2022/07/15 10:41:07;;;;;;;8.77;7.97;;;21.70;99.90;;;;;;5039719;28;20437;-47
2022/07/15 10:43:47;;;;;;;9.50;7.03;;;21.70;99.90;;;;;;5040761;28;20930;-48
2022/07/15 10:46:29;;;;;;;7.90;7.30;;;21.70;99.90;;;;;;5040055;28;20866;-45
2022/07/15 10:49:30;;;;;;;7.30;6.60;;;21.80;99.90;;;;;;5040375;28;20451;-45
2022/07/15 10:52:11;;;;;;;7.73;7.13;;;21.90;99.90;;;;;;5046298;28;20468;-46
2022/07/15 10:54:44;;;;;;;10.30;7.03;;;21.90;99.90;;;;;;5050321;28;20525;-46
2022/07/15 10:57:15;;;;;;;7.40;6.90;;;22.00;99.90;;;;;;5049809;28;20504;-46
2022/07/15 10:59:53;;;;;;;7.80;7.13;;;22.20;99.90;;;;;;5049947;28;20855;-47
2022/07/15 11:02:23;;;;;;;7.17;6.50;;;22.50;99.90;;;;;;5050137;28;20892;-46
2022/07/15 11:04:51;;;;;;;8.10;7.30;;;22.60;99.90;;;;;;5050302;28;20441;-43
2022/07/15 11:07:30;;;;;;;6.80;6.07;;;22.80;99.90;;;;;;5049750;28;20584;-43
2022/07/15 11:10:14;;;;;;;6.83;6.13;;;22.80;99.90;;;;;;5049673;28;20465;-46
2022/07/15 11:12:59;;;;;;;8.07;6.53;;;22.80;99.90;;;;;;5047774;28;20536;-43
2022/07/15 11:15:27;;;;;;;7.57;6.93;;;22.70;99.90;;;;;;5048783;28;20480;-44
2022/07/15 11:17:56;;;;;;;7.37;6.67;;;22.60;99.90;;;;;;5049539;28;20523;-43
2022/07/15 11:20:26;;;;;;;6.20;5.70;;;22.60;99.90;;;;;;5049596;28;20899;-43
2022/07/15 11:22:55;;;;;;;6.60;6.10;;;22.60;99.90;;;;;;5049826;28;20840;-43
2022/07/15 11:25:25;;;;;;;6.93;6.23;;;22.60;99.90;;;;;;5049857;28;20454;-43
2022/07/15 11:28:16;;;;;;;7.37;6.60;;;22.60;99.90;;;;;;5049563;28;20564;-43
2022/07/15 11:30:47;;;;;;;7.30;6.70;;;22.60;99.90;;;;;;5045334;28;20480;-44
2022/07/15 11:33:16;;;;;;;8.50;6.70;;;22.60;99.90;;;;;;5049533;28;20456;-44
2022/07/15 11:35:45;;;;;;;9.27;6.47;;;22.60;99.90;;;;;;5048747;28;20507;-44
2022/07/15 11:38:12;;;;;;;7.13;6.43;;;22.60;99.90;;;;;;5049344;28;20457;-43
2022/07/15 11:46:17;;;;;;;8.53;6.97;;;22.60;99.90;;;;;;5049291;28;20428;-44
2022/07/15 11:48:44;;;;;;;7.27;6.67;;;22.70;99.90;;;;;;5049377;28;20434;-45
2022/07/15 11:51:12;;;;;;;7.43;6.67;;;22.70;99.90;;;;;;5049199;28;20518;-43
2022/07/15 11:53:42;;;;;;;6.70;6.10;;;22.70;99.90;;;;;;5049586;28;20445;-44
2022/07/15 11:56:10;;;;;;;33.93;9.10;;;22.60;99.90;;;;;;5049031;28;20842;-47
2022/07/15 11:58:40;;;;;;;90.50;14.87;;;22.60;99.90;;;;;;5048770;28;20519;-45
2022/07/15 12:01:09;;;;;;;13.50;7.60;;;22.60;99.90;;;;;;5049116;28;20457;-45
2022/07/15 12:03:40;;;;;;;177.80;31.77;;;22.70;99.90;;;;;;5049075;28;20503;-44
2022/07/15 12:06:19;;;;;;;23.50;10.20;;;22.80;99.90;;;;;;5049103;28;20446;-46
2022/07/15 12:08:48;;;;;;;7.37;6.60;;;22.80;99.90;;;;;;5048612;28;20445;-49
2022/07/15 12:11:18;;;;;;;8.50;7.00;;;22.90;99.90;;;;;;5049172;28;20445;-46
2022/07/15 12:13:49;;;;;;;6.70;6.20;;;22.90;99.90;;;;;;5048884;28;21008;-45
2022/07/15 12:16:20;;;;;;;8.13;7.30;;;23.00;99.90;;;;;;5048724;28;20477;-44
2022/07/15 12:18:48;;;;;;;7.23;6.53;;;23.10;99.90;;;;;;5048674;28;21008;-42
2022/07/15 12:21:16;;;;;;;8.03;7.43;;;23.20;99.90;;;;;;5049092;28;20450;-43
2022/07/15 12:23:58;;;;;;;7.27;6.67;;;23.20;99.90;;;;;;5048895;28;20645;-45
2022/07/15 12:26:26;;;;;;;24.83;11.03;;;23.30;99.90;;;;;;5049185;28;20445;-44
2022/07/15 12:28:56;;;;;;;7.37;6.77;;;23.40;99.90;;;;;;5048559;28;20449;-45
2022/07/15 12:31:27;;;;;;;7.60;6.90;;;23.40;99.90;;;;;;5048964;28;20454;-45
2022/07/15 12:33:54;;;;;;;7.37;6.77;;;23.50;99.90;;;;;;5048837;28;20449;-43
2022/07/15 12:36:23;;;;;;;16.60;7.30;;;23.60;99.90;;;;;;5048559;28;20508;-46
2022/07/15 12:39:06;;;;;;;24.57;8.80;;;23.60;99.90;;;;;;5048487;28;20442;-43
2022/07/15 12:41:33;;;;;;;14.53;7.10;;;23.70;99.90;;;;;;5047058;28;20502;-43
2022/07/15 12:44:03;;;;;;;7.67;7.07;;;23.70;99.90;;;;;;5049000;28;20468;-43
2022/07/15 12:46:53;;;;;;;7.73;7.03;;;23.80;99.90;;;;;;5049426;28;20532;-43
2022/07/15 12:49:40;;;;;;;8.37;7.53;;;23.70;99.90;;;;;;5052016;28;20433;-44
2022/07/15 12:52:32;;;;;;;7.53;6.93;;;23.60;99.90;;;;;;5052211;28;20453;-44
2022/07/15 12:55:11;;;;;;;12.60;7.40;;;23.60;99.90;;;;;;5049009;28;20438;-43
2022/07/15 12:57:38;;;;;;;9.47;8.40;;;23.60;99.90;;;;;;5051964;28;20476;-44
2022/07/15 13:00:12;;;;;;;48.73;10.43;;;23.60;99.90;;;;;;5052069;28;20426;-44
2022/07/15 13:03:01;;;;;;;9.13;8.23;;;23.60;99.90;;;;;;5052059;28;20430;-44
2022/07/15 13:05:30;;;;;;;12.60;7.87;;;23.50;99.90;;;;;;5052060;28;20453;-43
2022/07/15 13:07:57;;;;;;;11.07;7.93;;;23.50;99.90;;;;;;5051790;28;20464;-45
2022/07/15 13:10:25;;;;;;;12.33;8.97;;;23.50;99.90;;;;;;5051710;28;20443;-44